createdAt,value
2023-02-23T00:01:25.064Z,10.82
2023-02-23T00:03:54.893Z,10.32
2023-02-23T00:06:21.616Z,9.43
2023-02-23T00:08:48.380Z,9.95
2023-02-23T00:11:17.044Z,9.13
2023-02-23T00:13:46.253Z,38.63
2023-02-23T00:16:15.869Z,24.13
2023-02-23T00:18:50.597Z,13.65
2023-02-23T00:21:20.874Z,11.68
2023-02-23T00:23:51.198Z,11.50
2023-02-23T00:26:20.847Z,11.27
2023-02-23T00:28:49.200Z,9.52
2023-02-23T00:31:16.017Z,9.60
2023-02-23T00:33:43.100Z,9.77
2023-02-23T00:36:13.497Z,9.90
2023-02-23T00:38:41.612Z,10.30
2023-02-23T00:41:13.489Z,11.15
2023-02-23T00:43:47.625Z,10.15
2023-02-23T00:46:17.378Z,10.65
2023-02-23T00:48:45.203Z,10.80
2023-02-23T00:51:12.597Z,10.38
2023-02-23T00:53:39.507Z,11.93
2023-02-23T00:56:07.663Z,11.48
2023-02-23T00:58:34.659Z,13.77
2023-02-23T01:01:01.553Z,10.02
2023-02-23T01:03:29.633Z,9.65
2023-02-23T01:06:00.849Z,11.13
2023-02-23T01:08:30.050Z,11.00
2023-02-23T01:10:56.819Z,11.23
2023-02-23T01:13:24.458Z,11.68
2023-02-23T01:15:52.211Z,12.57
2023-02-23T01:18:20.557Z,11.07
2023-02-23T01:20:47.443Z,12.98
2023-02-23T01:23:15.391Z,12.50
2023-02-23T01:25:44.490Z,12.07
2023-02-23T01:28:12.967Z,11.70
2023-02-23T01:30:40.481Z,11.40
2023-02-23T01:33:07.953Z,11.40
2023-02-23T01:35:35.063Z,11.93
2023-02-23T01:38:01.730Z,11.65
2023-02-23T01:40:28.821Z,12.65
2023-02-23T01:42:58.646Z,12.25
2023-02-23T01:45:36.119Z,11.45
2023-02-23T01:48:07.247Z,11.15
2023-02-23T01:50:43.680Z,11.10
2023-02-23T01:53:11.059Z,12.27
2023-02-23T01:55:38.938Z,11.82
2023-02-23T01:58:15.205Z,13.45
2023-02-23T02:00:47.551Z,11.40
2023-02-23T02:03:22.976Z,11.50
2023-02-23T02:05:51.140Z,12.38
2023-02-23T02:08:19.171Z,10.98
2023-02-23T02:10:47.267Z,10.98
2023-02-23T02:13:20.641Z,11.82
2023-02-23T02:15:54.405Z,11.80
2023-02-23T02:18:31.668Z,12.10
2023-02-23T02:21:11.423Z,11.20
2023-02-23T02:24:17.954Z,12.75
2023-02-23T02:26:47.857Z,13.18
2023-02-23T02:29:28.756Z,15.68
2023-02-23T02:32:04.042Z,13.10
2023-02-23T02:34:46.457Z,12.07
2023-02-23T02:37:23.594Z,13.25
2023-02-23T02:40:16.855Z,14.82
2023-02-23T02:43:11.615Z,16.33
2023-02-23T02:45:55.066Z,18.30
2023-02-23T02:48:31.071Z,14.13
2023-02-23T02:51:09.945Z,13.60
2023-02-23T02:53:45.049Z,11.70
2023-02-23T02:56:16.526Z,12.30
2023-02-23T02:58:43.509Z,14.02
2023-02-23T03:01:34.175Z,18.23
2023-02-23T03:04:25.037Z,17.92
2023-02-23T03:07:19.463Z,18.23
2023-02-23T03:10:32.618Z,18.70
2023-02-23T03:13:30.397Z,16.08
2023-02-23T03:16:35.363Z,15.57
2023-02-23T03:19:33.722Z,14.13
2023-02-23T03:22:33.416Z,15.33
2023-02-23T03:25:22.531Z,17.20
2023-02-23T03:28:20.547Z,14.98
2023-02-23T03:31:14.447Z,12.73
2023-02-23T03:34:17.139Z,13.40
2023-02-23T03:37:08.976Z,14.27
2023-02-23T03:40:03.221Z,15.85
2023-02-23T03:42:54.610Z,16.63
2023-02-23T03:45:44.471Z,15.35
2023-02-23T03:48:33.106Z,15.73
2023-02-23T03:51:25.041Z,20.15
2023-02-23T03:54:19.290Z,18.05
2023-02-23T03:57:09.960Z,15.52
2023-02-23T04:00:03.619Z,15.67
2023-02-23T04:02:54.477Z,16.95
2023-02-23T04:05:42.747Z,17.27
2023-02-23T04:08:33.801Z,16.90
2023-02-23T04:11:31.913Z,15.88
2023-02-23T04:14:01.711Z,17.15
2023-02-23T04:16:30.360Z,16.65
2023-02-23T04:18:57.578Z,16.95
2023-02-23T04:21:24.517Z,16.98
2023-02-23T04:23:52.110Z,18.70
2023-02-23T04:26:18.828Z,15.68
2023-02-23T04:28:45.678Z,15.73
2023-02-23T04:31:12.323Z,15.80
2023-02-23T04:33:39.201Z,15.48
2023-02-23T04:36:06.143Z,15.95
2023-02-23T04:38:32.839Z,17.75
2023-02-23T04:40:59.554Z,25.33
2023-02-23T04:43:26.261Z,21.40
2023-02-23T04:45:53.538Z,21.25
2023-02-23T04:48:20.313Z,25.35
2023-02-23T04:50:46.984Z,26.73
2023-02-23T04:53:13.717Z,27.07
2023-02-23T04:55:40.386Z,28.30
2023-02-23T04:58:08.105Z,31.23
2023-02-23T05:00:34.796Z,35.33
2023-02-23T05:03:01.495Z,34.37
2023-02-23T05:05:28.233Z,37.22
2023-02-23T05:07:55.118Z,34.47
2023-02-23T05:10:22.006Z,32.03
2023-02-23T05:12:48.714Z,30.98
2023-02-23T05:15:15.807Z,32.57
2023-02-23T05:17:42.887Z,34.33
2023-02-23T05:20:11.859Z,36.60
2023-02-23T05:22:38.561Z,32.20
2023-02-23T05:25:06.516Z,32.25
2023-02-23T05:27:33.321Z,30.40
2023-02-23T05:30:01.028Z,31.60
2023-02-23T05:32:28.535Z,30.15
2023-02-23T05:34:55.406Z,33.05
2023-02-23T05:37:22.157Z,33.23
2023-02-23T05:39:48.880Z,31.90
2023-02-23T05:42:15.582Z,28.73
2023-02-23T05:44:42.249Z,24.08
2023-02-23T05:47:08.927Z,21.13
2023-02-23T05:49:35.624Z,19.80
2023-02-23T05:52:02.338Z,18.87
2023-02-23T05:54:28.927Z,21.33
2023-02-23T05:56:55.616Z,20.90
2023-02-23T05:59:22.289Z,25.15
2023-02-23T06:01:48.999Z,24.65
2023-02-23T06:04:17.227Z,25.50
2023-02-23T06:06:44.191Z,26.13
2023-02-23T06:09:10.799Z,27.10
2023-02-23T06:11:37.493Z,27.38
2023-02-23T06:14:04.180Z,34.00
2023-02-23T06:16:31.788Z,31.48
2023-02-23T06:18:58.643Z,31.13
2023-02-23T06:21:25.356Z,29.95
2023-02-23T06:23:53.259Z,29.98
2023-02-23T06:26:20.502Z,26.70
2023-02-23T06:28:47.174Z,27.60
2023-02-23T06:31:13.940Z,30.42
2023-02-23T06:33:40.628Z,24.43
2023-02-23T06:36:07.774Z,21.40
2023-02-23T06:38:34.503Z,21.40
2023-02-23T06:41:06.584Z,21.13
2023-02-23T06:43:33.472Z,21.98
2023-02-23T06:46:00.114Z,22.88
2023-02-23T06:48:27.584Z,22.23
2023-02-23T06:50:54.256Z,21.48
2023-02-23T06:53:21.988Z,19.15
2023-02-23T06:55:48.639Z,19.10
2023-02-23T06:58:15.319Z,19.45
2023-02-23T07:00:43.576Z,20.60
2023-02-23T07:03:11.134Z,19.37
2023-02-23T07:05:37.876Z,22.13
2023-02-23T07:08:05.092Z,18.67
2023-02-23T07:10:31.762Z,19.45
2023-02-23T07:12:59.470Z,22.00
2023-02-23T07:15:26.151Z,22.98
2023-02-23T07:17:52.967Z,22.90
2023-02-23T07:20:19.850Z,26.65
2023-02-23T07:22:46.736Z,25.90
2023-02-23T07:25:13.745Z,27.10
2023-02-23T07:27:42.205Z,30.95
2023-02-23T07:30:09.986Z,31.17
2023-02-23T07:32:36.749Z,29.15
2023-02-23T07:35:04.620Z,30.17
2023-02-23T07:37:31.261Z,30.73
2023-02-23T07:40:00.107Z,29.92
2023-02-23T07:42:27.963Z,28.27
2023-02-23T07:44:54.640Z,21.88
2023-02-23T07:47:22.639Z,23.85
2023-02-23T07:49:49.385Z,22.30
2023-02-23T07:52:18.675Z,22.63
2023-02-23T07:54:45.475Z,21.77
2023-02-23T07:57:12.616Z,20.40
2023-02-23T07:59:39.367Z,21.70
2023-02-23T08:02:06.917Z,23.27
2023-02-23T08:04:33.658Z,25.30
2023-02-23T08:07:00.314Z,22.85
2023-02-23T08:09:27.205Z,23.37
2023-02-23T08:11:53.821Z,24.15
2023-02-23T08:14:23.516Z,24.27
2023-02-23T08:16:51.620Z,28.02
2023-02-23T08:19:18.953Z,25.08
2023-02-23T08:21:45.683Z,27.08
2023-02-23T08:24:12.406Z,26.40
2023-02-23T08:26:39.240Z,25.67
2023-02-23T08:29:06.114Z,24.33
2023-02-23T08:31:33.105Z,27.02
2023-02-23T08:34:00.194Z,27.57
2023-02-23T08:36:27.264Z,26.73
2023-02-23T08:38:55.020Z,25.48
2023-02-23T08:41:22.052Z,25.37
2023-02-23T08:43:48.902Z,23.48
2023-02-23T08:46:18.569Z,26.20
2023-02-23T08:48:46.583Z,27.15
2023-02-23T08:51:14.622Z,26.25
2023-02-23T08:53:41.483Z,27.10
2023-02-23T08:56:08.887Z,28.55
2023-02-23T08:58:36.424Z,29.02
2023-02-23T09:01:04.197Z,28.88
2023-02-23T09:03:32.864Z,29.73
2023-02-23T09:06:08.329Z,29.57
2023-02-23T09:08:35.317Z,28.92
2023-02-23T09:11:02.029Z,29.00
2023-02-23T09:13:28.711Z,27.05
2023-02-23T09:15:55.467Z,28.70
2023-02-23T09:18:23.983Z,28.27
2023-02-23T09:20:51.508Z,29.13
2023-02-23T09:23:18.276Z,29.85
2023-02-23T09:25:45.954Z,29.65
2023-02-23T09:28:15.677Z,29.15
2023-02-23T09:30:43.845Z,30.77
2023-02-23T09:33:11.373Z,29.98
2023-02-23T09:35:38.615Z,28.83
2023-02-23T09:38:07.182Z,29.00
2023-02-23T09:40:47.091Z,29.00
2023-02-23T09:43:27.519Z,29.70
2023-02-23T09:46:08.555Z,30.77
2023-02-23T09:48:35.381Z,33.08
2023-02-23T09:51:05.880Z,32.17
2023-02-23T09:53:40.609Z,28.93
2023-02-23T09:56:12.043Z,31.52
2023-02-23T09:58:39.365Z,33.42
2023-02-23T10:01:39.146Z,29.73
2023-02-23T10:04:26.702Z,34.83
2023-02-23T10:07:23.558Z,34.63
2023-02-23T10:10:17.473Z,32.15
2023-02-23T10:12:45.132Z,31.07
2023-02-23T10:15:13.852Z,30.63
2023-02-23T10:17:51.953Z,29.65
2023-02-23T10:20:27.734Z,31.30
2023-02-23T10:22:58.109Z,30.13
2023-02-23T10:25:28.650Z,29.38
2023-02-23T10:27:58.616Z,30.10
2023-02-23T10:30:29.070Z,33.28
2023-02-23T10:32:59.471Z,29.20
2023-02-23T10:35:29.308Z,28.42
2023-02-23T10:37:57.241Z,31.90
2023-02-23T10:40:27.671Z,29.83
2023-02-23T10:42:57.061Z,30.58
2023-02-23T10:45:26.773Z,30.80
2023-02-23T10:48:05.926Z,30.27
2023-02-23T10:50:35.782Z,28.88
2023-02-23T10:53:16.525Z,25.13
2023-02-23T10:55:45.579Z,25.85
2023-02-23T10:58:17.786Z,29.50
2023-02-23T11:01:03.127Z,24.55
2023-02-23T11:03:36.303Z,23.48
2023-02-23T11:06:03.812Z,27.00
2023-02-23T11:08:34.353Z,22.60
2023-02-23T11:11:05.923Z,26.30
2023-02-23T11:13:42.801Z,20.27
2023-02-23T11:16:14.465Z,19.10
2023-02-23T11:18:49.586Z,17.50
2023-02-23T11:21:29.482Z,17.40
2023-02-23T11:23:58.874Z,17.73
2023-02-23T11:26:30.365Z,17.20
2023-02-23T11:29:00.482Z,17.95
2023-02-23T11:31:32.456Z,15.52
2023-02-23T11:33:59.723Z,14.00
2023-02-23T11:36:30.086Z,15.32
2023-02-23T11:39:05.858Z,15.02
2023-02-23T11:41:35.178Z,14.55
2023-02-23T11:44:06.010Z,14.03
2023-02-23T11:46:37.920Z,13.73
2023-02-23T11:49:09.176Z,13.90
2023-02-23T11:51:39.904Z,13.75
2023-02-23T11:54:16.336Z,14.10
2023-02-23T11:56:52.123Z,14.48
2023-02-23T11:59:23.566Z,16.38
2023-02-23T12:01:53.239Z,15.65
2023-02-23T12:04:30.353Z,15.23
2023-02-23T12:07:18.036Z,15.00
2023-02-23T12:09:47.266Z,15.07
2023-02-23T12:12:18.758Z,16.52
2023-02-23T12:14:52.303Z,15.55
2023-02-23T12:17:24.123Z,13.55
2023-02-23T12:20:05.232Z,13.95
2023-02-23T12:22:38.320Z,15.33
2023-02-23T12:25:27.261Z,13.57
2023-02-23T12:28:19.333Z,16.33
2023-02-23T12:30:58.537Z,14.18
2023-02-23T12:33:33.918Z,14.68
2023-02-23T12:36:03.943Z,15.27
2023-02-23T12:38:44.251Z,16.23
2023-02-23T12:41:14.047Z,16.38
2023-02-23T12:43:51.288Z,14.15
2023-02-23T12:46:21.853Z,15.23
2023-02-23T12:48:52.191Z,15.20
2023-02-23T12:51:26.241Z,13.00
2023-02-23T12:53:53.104Z,14.13
2023-02-23T12:56:59.481Z,11.70
2023-02-23T12:59:46.386Z,12.65
2023-02-23T13:02:39.696Z,13.88
2023-02-23T13:05:15.822Z,13.23
2023-02-23T13:07:42.568Z,11.55
2023-02-23T13:10:39.078Z,11.30
2023-02-23T13:13:45.614Z,12.95
2023-02-23T13:16:23.753Z,12.43
2023-02-23T13:19:04.925Z,11.70
2023-02-23T13:21:31.724Z,9.63
2023-02-23T13:24:07.303Z,10.35
2023-02-23T13:26:42.495Z,10.32
2023-02-23T13:29:31.650Z,10.43
2023-02-23T13:32:01.321Z,9.48
2023-02-23T13:34:33.043Z,9.70
2023-02-23T13:37:02.659Z,9.55
2023-02-23T13:39:45.128Z,8.98
2023-02-23T13:42:40.774Z,10.05
2023-02-23T13:45:27.381Z,9.48
2023-02-23T13:48:10.928Z,9.07
2023-02-23T13:51:17.761Z,9.45
2023-02-23T13:53:47.760Z,9.07
2023-02-23T13:56:22.026Z,9.63
2023-02-23T13:59:02.200Z,10.18
2023-02-23T14:01:33.336Z,10.90
2023-02-23T14:04:04.711Z,9.63
2023-02-23T14:06:34.141Z,10.15
2023-02-23T14:09:09.639Z,8.95
2023-02-23T14:11:56.131Z,10.27
2023-02-23T14:14:42.282Z,8.52
2023-02-23T14:17:36.400Z,8.57
2023-02-23T14:20:24.340Z,8.17
2023-02-23T14:23:27.670Z,8.68
2023-02-23T14:26:16.393Z,8.43
2023-02-23T14:28:46.629Z,7.93
2023-02-23T14:31:13.477Z,7.63
2023-02-23T14:33:45.676Z,9.30
2023-02-23T14:36:33.478Z,9.35
2023-02-23T14:39:02.342Z,9.02
2023-02-23T14:41:35.797Z,8.70
2023-02-23T14:44:28.282Z,9.68
2023-02-23T14:47:04.398Z,9.50
2023-02-23T14:49:35.641Z,9.32
2023-02-23T14:52:07.259Z,8.90
2023-02-23T14:54:39.531Z,8.60
2023-02-23T14:57:18.462Z,8.52
2023-02-23T14:59:51.211Z,10.20
2023-02-23T15:02:21.245Z,10.48
2023-02-23T15:04:48.026Z,10.95
2023-02-23T15:07:32.449Z,8.88
2023-02-23T15:10:00.813Z,8.23
2023-02-23T15:12:30.696Z,12.02
2023-02-23T15:15:02.521Z,12.45
2023-02-23T15:17:32.356Z,9.32
2023-02-23T15:20:15.465Z,9.57
2023-02-23T15:22:46.729Z,9.55
2023-02-23T15:25:17.486Z,8.73
2023-02-23T15:27:45.568Z,10.40
2023-02-23T15:30:32.390Z,10.57
2023-02-23T15:33:00.236Z,9.47
2023-02-23T15:35:28.462Z,11.85
2023-02-23T15:38:05.810Z,11.82
2023-02-23T15:40:41.144Z,11.90
2023-02-23T15:43:20.097Z,12.00
2023-02-23T15:45:52.325Z,10.52
2023-02-23T15:48:39.099Z,9.77
2023-02-23T15:51:07.036Z,11.98
2023-02-23T15:53:35.134Z,10.27
2023-02-23T15:56:14.203Z,11.50
2023-02-23T15:58:56.513Z,7.95
2023-02-23T16:01:30.214Z,8.77
2023-02-23T16:04:05.426Z,8.07
2023-02-23T16:06:37.238Z,8.48
2023-02-23T16:09:20.568Z,8.50
2023-02-23T16:11:52.782Z,9.27
2023-02-23T16:14:20.781Z,10.32
2023-02-23T16:17:01.441Z,10.15
2023-02-23T16:19:40.694Z,11.70
2023-02-23T16:22:18.192Z,8.82
2023-02-23T16:24:44.967Z,8.75
2023-02-23T16:27:12.468Z,8.23
2023-02-23T16:29:41.985Z,9.40
2023-02-23T16:32:19.059Z,11.23
2023-02-23T16:34:54.507Z,11.20
2023-02-23T16:37:25.274Z,11.88
2023-02-23T16:39:52.988Z,11.88
2023-02-23T16:42:32.580Z,11.32
2023-02-23T16:44:59.902Z,10.23
2023-02-23T16:47:36.624Z,9.48
2023-02-23T16:50:25.178Z,10.55
2023-02-23T16:52:53.135Z,8.47
2023-02-23T16:55:21.157Z,8.77
2023-02-23T16:57:51.642Z,7.00
2023-02-23T17:00:28.928Z,9.40
2023-02-23T17:02:57.583Z,8.30
2023-02-23T17:05:25.266Z,9.65
2023-02-23T17:07:53.049Z,11.97
2023-02-23T17:10:26.483Z,12.43
2023-02-23T17:12:55.636Z,8.68
2023-02-23T17:15:24.252Z,10.38
2023-02-23T17:17:53.199Z,9.05
2023-02-23T17:20:21.344Z,6.97
2023-02-23T17:22:49.683Z,7.93
2023-02-23T17:25:17.343Z,11.38
2023-02-23T17:27:44.222Z,8.82
2023-02-23T17:30:11.957Z,9.17
2023-02-23T17:32:38.938Z,7.40
2023-02-23T17:35:06.085Z,7.75
2023-02-23T17:37:32.764Z,6.60
2023-02-23T17:39:59.441Z,7.43
2023-02-23T17:42:33.797Z,6.63
2023-02-23T17:45:02.036Z,7.75
2023-02-23T17:47:32.138Z,7.75
2023-02-23T17:50:00.259Z,7.20
2023-02-23T17:52:28.304Z,8.07
2023-02-23T17:54:55.534Z,7.53
2023-02-23T17:57:24.506Z,9.47
2023-02-23T17:59:51.967Z,9.38
2023-02-23T18:02:21.145Z,11.35
2023-02-23T18:04:48.393Z,10.80
2023-02-23T18:07:15.444Z,8.90
2023-02-23T18:09:42.379Z,10.13
2023-02-23T18:12:09.416Z,8.83
2023-02-23T18:14:37.709Z,7.50
2023-02-23T18:17:05.402Z,7.10
2023-02-23T18:19:32.824Z,7.10
2023-02-23T18:21:59.618Z,7.40
2023-02-23T18:24:27.482Z,7.20
2023-02-23T18:27:00.649Z,6.45
2023-02-23T18:29:30.419Z,6.50
2023-02-23T18:31:58.265Z,7.80
2023-02-23T18:34:27.461Z,8.55
2023-02-23T18:36:56.425Z,6.82
2023-02-23T18:39:23.361Z,12.60
2023-02-23T18:41:50.437Z,12.85
2023-02-23T18:44:18.271Z,11.40
2023-02-23T18:46:46.381Z,10.20
2023-02-23T18:49:19.358Z,12.85
2023-02-23T18:51:46.694Z,10.85
2023-02-23T18:54:16.691Z,10.40
2023-02-23T18:56:45.039Z,8.70
2023-02-23T18:59:12.268Z,8.05
2023-02-23T19:01:39.462Z,10.17
2023-02-23T19:04:08.036Z,10.80
2023-02-23T19:06:39.051Z,12.80
2023-02-23T19:09:09.619Z,13.20
2023-02-23T19:11:37.795Z,12.20
2023-02-23T19:14:08.039Z,12.20
2023-02-23T19:16:35.828Z,16.73
2023-02-23T19:19:05.545Z,19.38
2023-02-23T19:21:32.480Z,15.27
2023-02-23T19:24:01.532Z,17.25
2023-02-23T19:26:29.599Z,13.68
2023-02-23T19:28:56.670Z,12.23
2023-02-23T19:31:26.008Z,11.57
2023-02-23T19:33:55.767Z,10.65
2023-02-23T19:36:29.292Z,12.50
2023-02-23T19:39:06.007Z,9.77
2023-02-23T19:41:34.193Z,9.77
2023-02-23T19:44:01.331Z,10.48
2023-02-23T19:46:28.849Z,12.93
2023-02-23T19:48:56.530Z,15.52
2023-02-23T19:51:23.976Z,18.42
2023-02-23T19:53:54.286Z,15.20
2023-02-23T19:56:22.484Z,17.83
2023-02-23T19:58:49.417Z,20.27
2023-02-23T20:01:19.662Z,19.58
2023-02-23T20:03:55.072Z,18.90
2023-02-23T20:06:24.977Z,15.35
2023-02-23T20:08:52.673Z,15.82
2023-02-23T20:11:20.103Z,12.85
2023-02-23T20:13:46.997Z,11.97
2023-02-23T20:16:14.985Z,11.30
2023-02-23T20:18:43.193Z,13.55
2023-02-23T20:21:14.465Z,32.75
2023-02-23T20:23:42.798Z,58.03
2023-02-23T20:26:13.297Z,38.95
2023-02-23T20:28:40.069Z,45.85
2023-02-23T20:31:16.589Z,43.72
2023-02-23T20:33:43.706Z,47.40
2023-02-23T20:36:12.126Z,63.17
2023-02-23T20:38:39.262Z,29.47
2023-02-23T20:41:06.121Z,19.58
2023-02-23T20:43:32.843Z,21.90
2023-02-23T20:46:00.893Z,18.77
2023-02-23T20:48:29.391Z,17.75
2023-02-23T20:50:57.325Z,15.13
2023-02-23T20:53:25.956Z,12.95
2023-02-23T20:55:53.269Z,12.80
2023-02-23T20:58:26.254Z,12.18
2023-02-23T21:00:56.755Z,15.32
2023-02-23T21:03:25.225Z,14.13
2023-02-23T21:05:52.372Z,13.37
2023-02-23T21:08:20.576Z,14.15
2023-02-23T21:10:48.745Z,15.88
2023-02-23T21:13:16.871Z,14.25
2023-02-23T21:15:44.743Z,13.50
2023-02-23T21:18:11.745Z,14.63
2023-02-23T21:20:39.873Z,14.68
2023-02-23T21:23:06.904Z,16.65
2023-02-23T21:25:33.772Z,15.80
2023-02-23T21:28:01.889Z,17.13
2023-02-23T21:30:29.114Z,14.80
2023-02-23T21:32:57.480Z,13.65
2023-02-23T21:35:24.586Z,14.32
2023-02-23T21:37:52.495Z,14.00
2023-02-23T21:40:21.188Z,15.55
2023-02-23T21:42:49.567Z,15.05
2023-02-23T21:45:17.340Z,16.00
2023-02-23T21:47:46.080Z,15.65
2023-02-23T21:50:16.377Z,19.50
2023-02-23T21:52:45.273Z,23.10
2023-02-23T21:55:21.158Z,23.90
2023-02-23T21:57:48.674Z,24.80
2023-02-23T22:00:16.343Z,20.38
2023-02-23T22:02:46.520Z,16.13
2023-02-23T22:05:14.758Z,12.40
2023-02-23T22:07:41.871Z,14.60
2023-02-23T22:10:08.953Z,14.15
2023-02-23T22:12:35.702Z,15.43
2023-02-23T22:15:07.123Z,16.23
2023-02-23T22:17:34.280Z,16.45
2023-02-23T22:20:01.420Z,15.45
2023-02-23T22:22:28.311Z,18.90
2023-02-23T22:24:55.054Z,17.42
2023-02-23T22:27:22.075Z,14.57
2023-02-23T22:29:48.796Z,14.50
2023-02-23T22:32:17.509Z,13.93
2023-02-23T22:34:44.377Z,14.00
2023-02-23T22:37:11.118Z,14.30
2023-02-23T22:39:41.658Z,15.68
2023-02-23T22:42:12.525Z,13.97
2023-02-23T22:44:40.300Z,12.70
2023-02-23T22:47:07.601Z,15.20
2023-02-23T22:49:34.672Z,15.50
2023-02-23T22:52:01.453Z,15.00
2023-02-23T22:54:28.108Z,15.38
2023-02-23T22:56:54.933Z,14.55
2023-02-23T22:59:21.693Z,16.52
2023-02-23T23:01:50.140Z,14.30
2023-02-23T23:04:17.213Z,13.52
2023-02-23T23:06:44.007Z,14.52
2023-02-23T23:09:12.350Z,14.80
2023-02-23T23:11:41.736Z,14.65
2023-02-23T23:14:10.278Z,17.35
2023-02-23T23:16:47.471Z,16.27
2023-02-23T23:19:18.100Z,16.40
2023-02-23T23:21:46.053Z,17.90
2023-02-23T23:24:13.636Z,16.70
2023-02-23T23:26:41.317Z,17.55
2023-02-23T23:29:12.257Z,16.70
2023-02-23T23:31:45.278Z,17.98
2023-02-23T23:34:13.782Z,19.15
2023-02-23T23:36:45.887Z,16.05
2023-02-23T23:39:15.191Z,15.95
2023-02-23T23:41:43.872Z,16.67
2023-02-23T23:44:10.772Z,15.25
2023-02-23T23:46:42.600Z,17.17
2023-02-23T23:49:12.056Z,17.55
2023-02-23T23:51:44.807Z,17.58
2023-02-23T23:54:14.441Z,15.98
2023-02-23T23:56:43.532Z,15.83
2023-02-23T23:59:16.442Z,17.75
